sensor_id;sensor_type;location;lat;lon;timestamp;temperature;humidity
60727;DHT22;46577;49.004;12.120;2022-09-27T00:00:40;11.70;99.90
60727;DHT22;46577;49.004;12.120;2022-09-27T00:03:08;11.80;99.90
60727;DHT22;46577;49.004;12.120;2022-09-27T00:05:34;11.80;99.90
60727;DHT22;46577;49.004;12.120;2022-09-27T00:07:59;11.80;99.90
60727;DHT22;46577;49.004;12.120;2022-09-27T00:10:25;11.90;99.90
60727;DHT22;46577;49.004;12.120;2022-09-27T00:12:51;11.90;99.90
60727;DHT22;46577;49.004;12.120;2022-09-27T00:15:17;11.80;99.90
60727;DHT22;46577;49.004;12.120;2022-09-27T00:17:43;11.90;99.90
60727;DHT22;46577;49.004;12.120;2022-09-27T00:20:09;12.00;99.90
60727;DHT22;46577;49.004;12.120;2022-09-27T00:22:35;12.10;99.90
60727;DHT22;46577;49.004;12.120;2022-09-27T00:25:00;12.10;99.90
60727;DHT22;46577;49.004;12.120;2022-09-27T00:27:30;12.10;99.90
60727;DHT22;46577;49.004;12.120;2022-09-27T00:29:56;12.20;99.90
60727;DHT22;46577;49.004;12.120;2022-09-27T00:32:21;12.20;99.90
60727;DHT22;46577;49.004;12.120;2022-09-27T00:34:47;12.20;99.90
60727;DHT22;46577;49.004;12.120;2022-09-27T00:37:13;12.30;99.90
60727;DHT22;46577;49.004;12.120;2022-09-27T00:39:38;12.30;99.90
60727;DHT22;46577;49.004;12.120;2022-09-27T00:42:07;12.30;99.90
60727;DHT22;46577;49.004;12.120;2022-09-27T00:50:12;12.30;99.90
60727;DHT22;46577;49.004;12.120;2022-09-27T00:52:43;12.30;99.90
60727;DHT22;46577;49.004;12.120;2022-09-27T00:55:15;12.30;99.90
60727;DHT22;46577;49.004;12.120;2022-09-27T00:57:43;12.20;99.90
60727;DHT22;46577;49.004;12.120;2022-09-27T01:00:12;12.20;99.90
60727;DHT22;46577;49.004;12.120;2022-09-27T01:02:42;12.30;99.90
60727;DHT22;46577;49.004;12.120;2022-09-27T01:05:09;12.30;99.90
60727;DHT22;46577;49.004;12.120;2022-09-27T01:07:35;12.20;99.90
60727;DHT22;46577;49.004;12.120;2022-09-27T01:10:02;12.20;99.90
60727;DHT22;46577;49.004;12.120;2022-09-27T01:15:19;12.20;99.90
60727;DHT22;46577;49.004;12.120;2022-09-27T01:18:03;12.20;99.90
60727;DHT22;46577;49.004;12.120;2022-09-27T01:33:49;12.00;99.90
60727;DHT22;46577;49.004;12.120;2022-09-27T01:36:37;11.90;99.90
60727;DHT22;46577;49.004;12.120;2022-09-27T01:39:21;11.90;99.90
60727;DHT22;46577;49.004;12.120;2022-09-27T01:41:55;11.90;99.90
60727;DHT22;46577;49.004;12.120;2022-09-27T01:44:36;12.00;99.90
60727;DHT22;46577;49.004;12.120;2022-09-27T01:47:19;11.90;99.90
60727;DHT22;46577;49.004;12.120;2022-09-27T01:49:53;12.00;99.90
60727;DHT22;46577;49.004;12.120;2022-09-27T01:52:34;11.90;99.90
60727;DHT22;46577;49.004;12.120;2022-09-27T01:55:04;11.80;99.90
60727;DHT22;46577;49.004;12.120;2022-09-27T01:57:37;11.80;99.90
60727;DHT22;46577;49.004;12.120;2022-09-27T02:00:07;11.80;99.90
60727;DHT22;46577;49.004;12.120;2022-09-27T02:02:38;11.70;99.90
60727;DHT22;46577;49.004;12.120;2022-09-27T02:05:05;11.70;99.90
60727;DHT22;46577;49.004;12.120;2022-09-27T02:07:38;11.80;99.90
60727;DHT22;46577;49.004;12.120;2022-09-27T02:10:27;11.70;99.90
60727;DHT22;46577;49.004;12.120;2022-09-27T02:15:40;11.70;99.90
60727;DHT22;46577;49.004;12.120;2022-09-27T02:18:14;11.70;99.90
60727;DHT22;46577;49.004;12.120;2022-09-27T02:20:48;11.70;99.90
60727;DHT22;46577;49.004;12.120;2022-09-27T02:23:47;11.60;99.90
60727;DHT22;46577;49.004;12.120;2022-09-27T02:26:32;11.60;99.90
60727;DHT22;46577;49.004;12.120;2022-09-27T02:31:30;11.60;99.90
60727;DHT22;46577;49.004;12.120;2022-09-27T02:34:10;11.60;99.90
60727;DHT22;46577;49.004;12.120;2022-09-27T02:36:38;11.50;99.90
60727;DHT22;46577;49.004;12.120;2022-09-27T02:39:05;11.50;99.90
60727;DHT22;46577;49.004;12.120;2022-09-27T02:41:31;11.50;99.90
60727;DHT22;46577;49.004;12.120;2022-09-27T02:44:04;11.50;99.90
60727;DHT22;46577;49.004;12.120;2022-09-27T03:00:22;11.20;99.90
60727;DHT22;46577;49.004;12.120;2022-09-27T03:03:06;11.20;99.90
60727;DHT22;46577;49.004;12.120;2022-09-27T03:05:46;11.30;99.90
60727;DHT22;46577;49.004;12.120;2022-09-27T03:08:13;11.30;99.90
60727;DHT22;46577;49.004;12.120;2022-09-27T03:10:39;11.40;99.90
60727;DHT22;46577;49.004;12.120;2022-09-27T03:13:05;11.40;99.90
60727;DHT22;46577;49.004;12.120;2022-09-27T03:15:31;11.30;99.90
60727;DHT22;46577;49.004;12.120;2022-09-27T03:17:57;11.30;99.90
60727;DHT22;46577;49.004;12.120;2022-09-27T03:20:22;11.40;99.90
60727;DHT22;46577;49.004;12.120;2022-09-27T03:22:48;11.30;99.90
60727;DHT22;46577;49.004;12.120;2022-09-27T03:25:14;11.30;99.90
60727;DHT22;46577;49.004;12.120;2022-09-27T03:27:39;11.30;99.90
60727;DHT22;46577;49.004;12.120;2022-09-27T03:30:05;11.20;99.90
60727;DHT22;46577;49.004;12.120;2022-09-27T03:32:32;11.10;99.90
60727;DHT22;46577;49.004;12.120;2022-09-27T03:34:57;11.10;99.90
60727;DHT22;46577;49.004;12.120;2022-09-27T03:37:23;11.10;99.90
60727;DHT22;46577;49.004;12.120;2022-09-27T03:39:51;11.10;99.90
60727;DHT22;46577;49.004;12.120;2022-09-27T03:42:16;11.10;99.90
60727;DHT22;46577;49.004;12.120;2022-09-27T03:44:42;11.20;99.90
60727;DHT22;46577;49.004;12.120;2022-09-27T03:47:08;11.20;99.90
60727;DHT22;46577;49.004;12.120;2022-09-27T03:49:33;11.10;99.90
60727;DHT22;46577;49.004;12.120;2022-09-27T03:51:59;11.10;99.90
60727;DHT22;46577;49.004;12.120;2022-09-27T03:54:25;11.10;99.90
60727;DHT22;46577;49.004;12.120;2022-09-27T03:56:51;11.00;99.90
60727;DHT22;46577;49.004;12.120;2022-09-27T03:59:16;11.10;99.90
60727;DHT22;46577;49.004;12.120;2022-09-27T04:01:42;11.10;99.90
60727;DHT22;46577;49.004;12.120;2022-09-27T04:04:09;11.00;99.90
60727;DHT22;46577;49.004;12.120;2022-09-27T04:06:35;11.00;99.90
60727;DHT22;46577;49.004;12.120;2022-09-27T04:09:01;11.00;99.90
60727;DHT22;46577;49.004;12.120;2022-09-27T04:11:27;11.00;99.90
60727;DHT22;46577;49.004;12.120;2022-09-27T04:13:53;11.00;99.90
60727;DHT22;46577;49.004;12.120;2022-09-27T04:16:21;11.10;99.90
60727;DHT22;46577;49.004;12.120;2022-09-27T04:18:46;11.10;99.90
60727;DHT22;46577;49.004;12.120;2022-09-27T04:21:12;11.20;99.90
60727;DHT22;46577;49.004;12.120;2022-09-27T04:23:38;11.20;99.90
60727;DHT22;46577;49.004;12.120;2022-09-27T04:26:05;11.20;99.90
60727;DHT22;46577;49.004;12.120;2022-09-27T04:28:30;11.10;99.90
60727;DHT22;46577;49.004;12.120;2022-09-27T04:30:56;11.10;99.90
60727;DHT22;46577;49.004;12.120;2022-09-27T04:33:22;11.10;99.90
60727;DHT22;46577;49.004;12.120;2022-09-27T04:35:48;11.10;99.90
60727;DHT22;46577;49.004;12.120;2022-09-27T04:38:33;11.10;99.90
60727;DHT22;46577;49.004;12.120;2022-09-27T04:40:58;11.10;99.90
60727;DHT22;46577;49.004;12.120;2022-09-27T04:43:27;10.90;99.90
60727;DHT22;46577;49.004;12.120;2022-09-27T04:45:53;10.90;99.90
60727;DHT22;46577;49.004;12.120;2022-09-27T04:48:19;11.00;99.90
60727;DHT22;46577;49.004;12.120;2022-09-27T04:50:45;9.60;99.90
60727;DHT22;46577;49.004;12.120;2022-09-27T04:53:14;11.00;99.90
60727;DHT22;46577;49.004;12.120;2022-09-27T04:55:46;11.10;99.90
60727;DHT22;46577;49.004;12.120;2022-09-27T04:58:12;11.00;99.90
60727;DHT22;46577;49.004;12.120;2022-09-27T05:00:39;11.00;99.90
60727;DHT22;46577;49.004;12.120;2022-09-27T05:03:07;11.00;99.90
60727;DHT22;46577;49.004;12.120;2022-09-27T05:05:32;11.00;99.90
60727;DHT22;46577;49.004;12.120;2022-09-27T05:07:58;10.90;99.90
60727;DHT22;46577;49.004;12.120;2022-09-27T05:10:24;11.00;99.90
60727;DHT22;46577;49.004;12.120;2022-09-27T05:12:50;10.90;99.90
60727;DHT22;46577;49.004;12.120;2022-09-27T05:15:16;10.90;99.90
60727;DHT22;46577;49.004;12.120;2022-09-27T05:17:41;10.90;99.90
60727;DHT22;46577;49.004;12.120;2022-09-27T05:20:07;10.90;99.90
60727;DHT22;46577;49.004;12.120;2022-09-27T05:22:35;10.90;99.90
60727;DHT22;46577;49.004;12.120;2022-09-27T05:25:02;10.90;99.90
60727;DHT22;46577;49.004;12.120;2022-09-27T05:27:28;10.90;99.90
60727;DHT22;46577;49.004;12.120;2022-09-27T05:29:55;10.90;99.90
60727;DHT22;46577;49.004;12.120;2022-09-27T05:32:21;10.90;99.90
60727;DHT22;46577;49.004;12.120;2022-09-27T05:34:47;11.00;99.90
60727;DHT22;46577;49.004;12.120;2022-09-27T05:37:13;11.00;99.90
60727;DHT22;46577;49.004;12.120;2022-09-27T05:39:39;11.00;99.90
60727;DHT22;46577;49.004;12.120;2022-09-27T05:42:05;11.00;99.90
60727;DHT22;46577;49.004;12.120;2022-09-27T05:44:33;11.00;99.90
60727;DHT22;46577;49.004;12.120;2022-09-27T05:47:02;11.00;99.90
60727;DHT22;46577;49.004;12.120;2022-09-27T05:49:28;11.10;99.90
60727;DHT22;46577;49.004;12.120;2022-09-27T05:51:54;11.10;99.90
60727;DHT22;46577;49.004;12.120;2022-09-27T05:54:19;11.20;99.90
60727;DHT22;46577;49.004;12.120;2022-09-27T05:56:45;11.20;99.90
60727;DHT22;46577;49.004;12.120;2022-09-27T05:59:11;11.20;99.90
60727;DHT22;46577;49.004;12.120;2022-09-27T06:01:37;11.20;99.90
60727;DHT22;46577;49.004;12.120;2022-09-27T06:04:03;11.20;99.90
60727;DHT22;46577;49.004;12.120;2022-09-27T06:06:30;11.30;99.90
60727;DHT22;46577;49.004;12.120;2022-09-27T06:08:56;11.20;99.90
60727;DHT22;46577;49.004;12.120;2022-09-27T06:11:22;11.30;99.90
60727;DHT22;46577;49.004;12.120;2022-09-27T06:13:48;11.20;99.90
60727;DHT22;46577;49.004;12.120;2022-09-27T06:16:13;11.20;99.90
60727;DHT22;46577;49.004;12.120;2022-09-27T06:18:39;11.30;99.90
60727;DHT22;46577;49.004;12.120;2022-09-27T06:21:05;11.20;99.90
60727;DHT22;46577;49.004;12.120;2022-09-27T06:23:31;11.10;99.90
60727;DHT22;46577;49.004;12.120;2022-09-27T06:26:01;11.20;99.90
60727;DHT22;46577;49.004;12.120;2022-09-27T06:28:27;11.20;99.90
60727;DHT22;46577;49.004;12.120;2022-09-27T06:30:54;11.30;99.90
60727;DHT22;46577;49.004;12.120;2022-09-27T06:33:19;11.40;99.90
60727;DHT22;46577;49.004;12.120;2022-09-27T06:35:46;11.70;99.90
60727;DHT22;46577;49.004;12.120;2022-09-27T06:38:15;11.70;99.90
60727;DHT22;46577;49.004;12.120;2022-09-27T06:40:42;11.90;99.90
60727;DHT22;46577;49.004;12.120;2022-09-27T06:43:16;12.00;99.90
60727;DHT22;46577;49.004;12.120;2022-09-27T06:45:42;12.20;99.90
60727;DHT22;46577;49.004;12.120;2022-09-27T06:48:09;12.40;99.90
60727;DHT22;46577;49.004;12.120;2022-09-27T06:50:38;12.50;99.90
60727;DHT22;46577;49.004;12.120;2022-09-27T06:53:05;12.50;99.90
60727;DHT22;46577;49.004;12.120;2022-09-27T06:55:31;14.20;99.90
60727;DHT22;46577;49.004;12.120;2022-09-27T06:57:59;14.40;99.90
60727;DHT22;46577;49.004;12.120;2022-09-27T07:00:52;15.60;99.90
60727;DHT22;46577;49.004;12.120;2022-09-27T07:03:22;16.30;98.80
60727;DHT22;46577;49.004;12.120;2022-09-27T07:06:02;15.80;99.70
60727;DHT22;46577;49.004;12.120;2022-09-27T07:08:28;15.20;99.90
60727;DHT22;46577;49.004;12.120;2022-09-27T07:10:59;15.80;99.90
60727;DHT22;46577;49.004;12.120;2022-09-27T07:13:25;16.30;99.20
60727;DHT22;46577;49.004;12.120;2022-09-27T07:15:54;16.60;98.90
60727;DHT22;46577;49.004;12.120;2022-09-27T07:18:20;16.70;98.10
60727;DHT22;46577;49.004;12.120;2022-09-27T07:20:45;15.80;99.00
60727;DHT22;46577;49.004;12.120;2022-09-27T07:23:12;15.60;99.40
60727;DHT22;46577;49.004;12.120;2022-09-27T07:25:38;15.50;99.60
60727;DHT22;46577;49.004;12.120;2022-09-27T07:28:07;15.40;99.90
60727;DHT22;46577;49.004;12.120;2022-09-27T07:30:35;15.60;98.30
60727;DHT22;46577;49.004;12.120;2022-09-27T07:33:03;15.00;98.90
60727;DHT22;46577;49.004;12.120;2022-09-27T07:35:29;14.40;98.60
60727;DHT22;46577;49.004;12.120;2022-09-27T07:37:55;14.20;99.90
60727;DHT22;46577;49.004;12.120;2022-09-27T07:40:22;14.40;99.90
60727;DHT22;46577;49.004;12.120;2022-09-27T07:42:56;14.90;99.90
60727;DHT22;46577;49.004;12.120;2022-09-27T07:45:23;16.80;97.50
60727;DHT22;46577;49.004;12.120;2022-09-27T07:47:49;18.50;93.70
60727;DHT22;46577;49.004;12.120;2022-09-27T07:50:16;20.80;85.40
60727;DHT22;46577;49.004;12.120;2022-09-27T07:52:46;22.50;75.70
60727;DHT22;46577;49.004;12.120;2022-09-27T07:55:13;22.80;68.30
60727;DHT22;46577;49.004;12.120;2022-09-27T07:57:39;23.70;63.10
60727;DHT22;46577;49.004;12.120;2022-09-27T08:00:11;24.10;60.20
60727;DHT22;46577;49.004;12.120;2022-09-27T08:02:39;23.40;59.40
60727;DHT22;46577;49.004;12.120;2022-09-27T08:05:05;23.30;61.00
60727;DHT22;46577;49.004;12.120;2022-09-27T08:07:31;24.50;57.10
60727;DHT22;46577;49.004;12.120;2022-09-27T08:09:57;24.80;55.60
60727;DHT22;46577;49.004;12.120;2022-09-27T08:12:23;23.30;57.10
60727;DHT22;46577;49.004;12.120;2022-09-27T08:14:49;21.50;61.30
60727;DHT22;46577;49.004;12.120;2022-09-27T08:17:15;19.90;66.00
60727;DHT22;46577;49.004;12.120;2022-09-27T08:19:42;18.20;72.00
60727;DHT22;46577;49.004;12.120;2022-09-27T08:22:10;17.00;80.20
60727;DHT22;46577;49.004;12.120;2022-09-27T08:24:39;16.10;88.10
60727;DHT22;46577;49.004;12.120;2022-09-27T08:27:05;15.40;91.80
60727;DHT22;46577;49.004;12.120;2022-09-27T08:29:33;15.20;94.70
60727;DHT22;46577;49.004;12.120;2022-09-27T08:31:58;15.30;94.40
60727;DHT22;46577;49.004;12.120;2022-09-27T08:34:24;15.60;94.50
60727;DHT22;46577;49.004;12.120;2022-09-27T08:36:50;15.60;94.60
60727;DHT22;46577;49.004;12.120;2022-09-27T08:39:15;15.00;96.10
60727;DHT22;46577;49.004;12.120;2022-09-27T08:42:01;15.10;97.20
60727;DHT22;46577;49.004;12.120;2022-09-27T08:44:50;15.50;96.00
60727;DHT22;46577;49.004;12.120;2022-09-27T08:47:40;15.40;96.00
60727;DHT22;46577;49.004;12.120;2022-09-27T08:53:29;14.40;99.30
60727;DHT22;46577;49.004;12.120;2022-09-27T08:55:42;13.90;99.90
60727;DHT22;46577;49.004;12.120;2022-09-27T09:00:51;13.40;99.90
60727;DHT22;46577;49.004;12.120;2022-09-27T09:03:21;13.40;99.90
60727;DHT22;46577;49.004;12.120;2022-09-27T09:06:03;13.50;99.90
60727;DHT22;46577;49.004;12.120;2022-09-27T09:11:20;14.00;99.90
60727;DHT22;46577;49.004;12.120;2022-09-27T09:17:02;14.90;99.90
60727;DHT22;46577;49.004;12.120;2022-09-27T09:22:37;14.40;99.90
60727;DHT22;46577;49.004;12.120;2022-09-27T09:26:04;14.00;99.90
60727;DHT22;46577;49.004;12.120;2022-09-27T09:28:20;13.80;99.90
60727;DHT22;46577;49.004;12.120;2022-09-27T09:33:24;14.10;99.90
60727;DHT22;46577;49.004;12.120;2022-09-27T09:35:54;14.40;99.90
60727;DHT22;46577;49.004;12.120;2022-09-27T09:44:03;17.30;95.60
60727;DHT22;46577;49.004;12.120;2022-09-27T09:46:44;17.20;95.70
60727;DHT22;46577;49.004;12.120;2022-09-27T09:51:52;16.90;93.50
60727;DHT22;46577;49.004;12.120;2022-09-27T09:54:29;16.30;94.20
60727;DHT22;46577;49.004;12.120;2022-09-27T09:57:04;16.40;95.10
60727;DHT22;46577;49.004;12.120;2022-09-27T09:59:51;16.70;94.20
60727;DHT22;46577;49.004;12.120;2022-09-27T10:02:29;17.40;93.70
60727;DHT22;46577;49.004;12.120;2022-09-27T10:04:56;18.00;91.70
60727;DHT22;46577;49.004;12.120;2022-09-27T10:07:23;18.50;90.50
60727;DHT22;46577;49.004;12.120;2022-09-27T10:09:51;18.90;88.10
60727;DHT22;46577;49.004;12.120;2022-09-27T10:12:18;18.80;87.50
60727;DHT22;46577;49.004;12.120;2022-09-27T10:14:46;18.40;85.60
60727;DHT22;46577;49.004;12.120;2022-09-27T10:17:15;17.80;85.60
60727;DHT22;46577;49.004;12.120;2022-09-27T10:19:43;17.00;89.60
60727;DHT22;46577;49.004;12.120;2022-09-27T10:22:23;18.00;91.10
60727;DHT22;46577;49.004;12.120;2022-09-27T10:25:00;19.10;89.20
60727;DHT22;46577;49.004;12.120;2022-09-27T10:30:04;21.00;81.20
60727;DHT22;46577;49.004;12.120;2022-09-27T10:32:32;22.40;73.90
60727;DHT22;46577;49.004;12.120;2022-09-27T10:40:57;23.40;58.70
60727;DHT22;46577;49.004;12.120;2022-09-27T10:46:03;23.40;59.90
60727;DHT22;46577;49.004;12.120;2022-09-27T10:48:29;23.70;57.20
60727;DHT22;46577;49.004;12.120;2022-09-27T10:51:00;23.60;54.00
60727;DHT22;46577;49.004;12.120;2022-09-27T10:53:26;23.40;53.60
60727;DHT22;46577;49.004;12.120;2022-09-27T10:55:54;23.00;55.00
60727;DHT22;46577;49.004;12.120;2022-09-27T10:58:26;22.20;56.00
60727;DHT22;46577;49.004;12.120;2022-09-27T11:01:04;21.20;57.60
60727;DHT22;46577;49.004;12.120;2022-09-27T11:03:35;20.20;62.20
60727;DHT22;46577;49.004;12.120;2022-09-27T11:08:53;18.10;69.90
60727;DHT22;46577;49.004;12.120;2022-09-27T11:11:24;17.60;74.40
60727;DHT22;46577;49.004;12.120;2022-09-27T11:14:01;16.90;76.80
60727;DHT22;46577;49.004;12.120;2022-09-27T11:16:40;17.10;79.70
60727;DHT22;46577;49.004;12.120;2022-09-27T11:30:07;20.00;65.20
60727;DHT22;46577;49.004;12.120;2022-09-27T11:47:10;15.50;92.20
60727;DHT22;46577;49.004;12.120;2022-09-27T11:56:02;18.20;91.50
60727;DHT22;46577;49.004;12.120;2022-09-27T12:07:17;24.10;63.60
60727;DHT22;46577;49.004;12.120;2022-09-27T12:09:49;25.50;54.00
60727;DHT22;46577;49.004;12.120;2022-09-27T12:12:19;25.90;50.80
60727;DHT22;46577;49.004;12.120;2022-09-27T12:15:11;25.80;49.20
60727;DHT22;46577;49.004;12.120;2022-09-27T12:17:44;26.60;47.60
60727;DHT22;46577;49.004;12.120;2022-09-27T12:20:22;26.30;45.90
60727;DHT22;46577;49.004;12.120;2022-09-27T12:23:02;26.20;48.00
60727;DHT22;46577;49.004;12.120;2022-09-27T12:25:33;25.30;46.50
60727;DHT22;46577;49.004;12.120;2022-09-27T12:28:18;24.30;48.20
60727;DHT22;46577;49.004;12.120;2022-09-27T12:30:52;23.50;49.00
60727;DHT22;46577;49.004;12.120;2022-09-27T12:33:41;23.10;50.90
60727;DHT22;46577;49.004;12.120;2022-09-27T12:36:14;22.30;51.00
60727;DHT22;46577;49.004;12.120;2022-09-27T12:38:43;21.00;52.60
60727;DHT22;46577;49.004;12.120;2022-09-27T12:41:12;19.40;55.00
60727;DHT22;46577;49.004;12.120;2022-09-27T12:43:44;17.30;61.20
60727;DHT22;46577;49.004;12.120;2022-09-27T12:46:16;17.30;62.20
60727;DHT22;46577;49.004;12.120;2022-09-27T12:51:22;16.10;64.40
60727;DHT22;46577;49.004;12.120;2022-09-27T12:56:50;16.40;64.80
60727;DHT22;46577;49.004;12.120;2022-09-27T13:05:15;15.60;67.00
60727;DHT22;46577;49.004;12.120;2022-09-27T13:13:17;15.50;71.60
60727;DHT22;46577;49.004;12.120;2022-09-27T13:15:45;15.40;71.10
60727;DHT22;46577;49.004;12.120;2022-09-27T13:24:48;14.50;70.90
60727;DHT22;46577;49.004;12.120;2022-09-27T13:32:37;14.80;74.40
60727;DHT22;46577;49.004;12.120;2022-09-27T13:48:08;15.30;74.10
60727;DHT22;46577;49.004;12.120;2022-09-27T13:50:46;15.10;75.60
60727;DHT22;46577;49.004;12.120;2022-09-27T13:53:32;15.00;74.00
60727;DHT22;46577;49.004;12.120;2022-09-27T13:55:59;14.90;75.40
60727;DHT22;46577;49.004;12.120;2022-09-27T13:58:58;14.90;75.70
60727;DHT22;46577;49.004;12.120;2022-09-27T14:01:32;15.70;75.80
60727;DHT22;46577;49.004;12.120;2022-09-27T14:06:43;14.50;77.30
60727;DHT22;46577;49.004;12.120;2022-09-27T14:09:20;14.30;76.40
60727;DHT22;46577;49.004;12.120;2022-09-27T14:11:52;14.20;77.40
60727;DHT22;46577;49.004;12.120;2022-09-27T14:14:23;14.10;78.10
60727;DHT22;46577;49.004;12.120;2022-09-27T14:16:49;14.10;79.00
60727;DHT22;46577;49.004;12.120;2022-09-27T14:19:21;14.50;80.50
60727;DHT22;46577;49.004;12.120;2022-09-27T14:21:47;14.80;78.70
60727;DHT22;46577;49.004;12.120;2022-09-27T14:27:25;15.30;76.00
60727;DHT22;46577;49.004;12.120;2022-09-27T14:29:56;15.20;79.20
60727;DHT22;46577;49.004;12.120;2022-09-27T14:32:24;15.30;77.20
60727;DHT22;46577;49.004;12.120;2022-09-27T14:35:13;15.30;77.00
60727;DHT22;46577;49.004;12.120;2022-09-27T14:37:58;15.10;77.80
60727;DHT22;46577;49.004;12.120;2022-09-27T14:40:24;14.90;77.40
60727;DHT22;46577;49.004;12.120;2022-09-27T14:42:58;14.80;78.60
60727;DHT22;46577;49.004;12.120;2022-09-27T14:45:32;14.80;79.50
60727;DHT22;46577;49.004;12.120;2022-09-27T14:48:01;14.50;78.40
60727;DHT22;46577;49.004;12.120;2022-09-27T14:50:29;14.50;82.60
60727;DHT22;46577;49.004;12.120;2022-09-27T14:52:55;14.20;84.70
60727;DHT22;46577;49.004;12.120;2022-09-27T14:55:25;14.00;90.40
60727;DHT22;46577;49.004;12.120;2022-09-27T14:58:00;13.70;89.80
60727;DHT22;46577;49.004;12.120;2022-09-27T15:00:29;13.60;92.00
60727;DHT22;46577;49.004;12.120;2022-09-27T15:03:03;13.60;94.40
60727;DHT22;46577;49.004;12.120;2022-09-27T15:05:31;13.50;92.80
60727;DHT22;46577;49.004;12.120;2022-09-27T15:08:03;13.60;93.40
60727;DHT22;46577;49.004;12.120;2022-09-27T15:10:33;13.60;93.90
60727;DHT22;46577;49.004;12.120;2022-09-27T15:13:00;13.70;93.60
60727;DHT22;46577;49.004;12.120;2022-09-27T15:15:32;13.80;94.50
60727;DHT22;46577;49.004;12.120;2022-09-27T15:18:00;13.80;95.10
60727;DHT22;46577;49.004;12.120;2022-09-27T15:20:31;13.70;95.70
60727;DHT22;46577;49.004;12.120;2022-09-27T15:22:59;13.90;96.20
60727;DHT22;46577;49.004;12.120;2022-09-27T15:25:35;14.00;96.60
60727;DHT22;46577;49.004;12.120;2022-09-27T15:28:14;14.00;97.30
60727;DHT22;46577;49.004;12.120;2022-09-27T15:30:46;14.00;96.90
60727;DHT22;46577;49.004;12.120;2022-09-27T15:33:28;14.00;97.50
60727;DHT22;46577;49.004;12.120;2022-09-27T15:35:58;13.70;98.50
60727;DHT22;46577;49.004;12.120;2022-09-27T15:41:07;13.60;99.90
60727;DHT22;46577;49.004;12.120;2022-09-27T15:51:44;12.10;99.90
60727;DHT22;46577;49.004;12.120;2022-09-27T15:54:10;11.30;99.90
60727;DHT22;46577;49.004;12.120;2022-09-27T15:56:39;11.30;99.90
60727;DHT22;46577;49.004;12.120;2022-09-27T15:59:05;11.20;99.90
60727;DHT22;46577;49.004;12.120;2022-09-27T16:01:32;11.10;99.90
60727;DHT22;46577;49.004;12.120;2022-09-27T16:04:01;11.00;99.90
60727;DHT22;46577;49.004;12.120;2022-09-27T16:06:27;11.00;99.90
60727;DHT22;46577;49.004;12.120;2022-09-27T16:08:53;10.90;99.90
60727;DHT22;46577;49.004;12.120;2022-09-27T16:11:19;11.10;99.90
60727;DHT22;46577;49.004;12.120;2022-09-27T16:13:44;11.30;99.90
60727;DHT22;46577;49.004;12.120;2022-09-27T16:16:18;11.60;99.90
60727;DHT22;46577;49.004;12.120;2022-09-27T16:18:44;11.60;99.90
60727;DHT22;46577;49.004;12.120;2022-09-27T16:21:11;11.70;99.90
60727;DHT22;46577;49.004;12.120;2022-09-27T16:23:36;11.60;99.90
60727;DHT22;46577;49.004;12.120;2022-09-27T16:26:03;11.80;99.90
60727;DHT22;46577;49.004;12.120;2022-09-27T16:28:30;11.70;99.90
60727;DHT22;46577;49.004;12.120;2022-09-27T16:31:03;11.80;99.90
60727;DHT22;46577;49.004;12.120;2022-09-27T16:33:30;11.70;99.90
60727;DHT22;46577;49.004;12.120;2022-09-27T16:35:57;11.70;99.90
60727;DHT22;46577;49.004;12.120;2022-09-27T16:38:25;11.70;99.90
60727;DHT22;46577;49.004;12.120;2022-09-27T16:40:51;11.60;99.90
60727;DHT22;46577;49.004;12.120;2022-09-27T16:43:17;11.50;99.90
60727;DHT22;46577;49.004;12.120;2022-09-27T16:45:44;11.40;99.90
60727;DHT22;46577;49.004;12.120;2022-09-27T16:48:09;11.20;99.90
60727;DHT22;46577;49.004;12.120;2022-09-27T16:50:35;11.20;99.90
60727;DHT22;46577;49.004;12.120;2022-09-27T16:53:19;11.10;99.90
60727;DHT22;46577;49.004;12.120;2022-09-27T16:55:45;11.20;99.90
60727;DHT22;46577;49.004;12.120;2022-09-27T16:58:11;11.20;99.90
60727;DHT22;46577;49.004;12.120;2022-09-27T17:00:36;11.10;99.90
60727;DHT22;46577;49.004;12.120;2022-09-27T17:03:03;11.20;99.90
60727;DHT22;46577;49.004;12.120;2022-09-27T17:05:28;11.10;99.90
60727;DHT22;46577;49.004;12.120;2022-09-27T17:07:56;11.10;99.90
60727;DHT22;46577;49.004;12.120;2022-09-27T17:10:22;11.10;99.90
60727;DHT22;46577;49.004;12.120;2022-09-27T17:12:48;11.00;99.90
60727;DHT22;46577;49.004;12.120;2022-09-27T17:15:15;11.00;99.90
60727;DHT22;46577;49.004;12.120;2022-09-27T17:17:42;11.00;99.90
60727;DHT22;46577;49.004;12.120;2022-09-27T17:20:09;10.90;99.90
60727;DHT22;46577;49.004;12.120;2022-09-27T17:22:35;10.90;99.90
60727;DHT22;46577;49.004;12.120;2022-09-27T17:25:00;10.80;99.90
60727;DHT22;46577;49.004;12.120;2022-09-27T17:27:26;10.70;99.90
60727;DHT22;46577;49.004;12.120;2022-09-27T17:29:53;10.60;99.90
60727;DHT22;46577;49.004;12.120;2022-09-27T17:32:19;10.60;99.90
60727;DHT22;46577;49.004;12.120;2022-09-27T17:34:51;10.60;99.90
60727;DHT22;46577;49.004;12.120;2022-09-27T17:37:17;10.60;99.90
60727;DHT22;46577;49.004;12.120;2022-09-27T17:39:43;10.50;99.90
60727;DHT22;46577;49.004;12.120;2022-09-27T17:42:09;10.50;99.90
60727;DHT22;46577;49.004;12.120;2022-09-27T17:44:35;10.50;99.90
60727;DHT22;46577;49.004;12.120;2022-09-27T17:47:02;10.50;99.90
60727;DHT22;46577;49.004;12.120;2022-09-27T17:49:46;10.40;99.90
60727;DHT22;46577;49.004;12.120;2022-09-27T17:52:30;10.40;99.90
60727;DHT22;46577;49.004;12.120;2022-09-27T17:54:57;10.30;99.90
60727;DHT22;46577;49.004;12.120;2022-09-27T17:57:23;10.30;99.90
60727;DHT22;46577;49.004;12.120;2022-09-27T17:59:49;10.40;99.90
60727;DHT22;46577;49.004;12.120;2022-09-27T18:02:15;10.40;99.90
60727;DHT22;46577;49.004;12.120;2022-09-27T18:04:41;10.40;99.90
60727;DHT22;46577;49.004;12.120;2022-09-27T18:07:07;10.50;99.90
60727;DHT22;46577;49.004;12.120;2022-09-27T18:09:33;10.50;99.90
60727;DHT22;46577;49.004;12.120;2022-09-27T18:11:58;10.40;99.90
60727;DHT22;46577;49.004;12.120;2022-09-27T18:14:24;10.50;99.90
60727;DHT22;46577;49.004;12.120;2022-09-27T18:16:51;10.30;99.90
60727;DHT22;46577;49.004;12.120;2022-09-27T18:19:19;10.40;99.90
60727;DHT22;46577;49.004;12.120;2022-09-27T18:21:44;10.40;99.90
60727;DHT22;46577;49.004;12.120;2022-09-27T18:24:10;10.40;99.90
60727;DHT22;46577;49.004;12.120;2022-09-27T18:26:38;10.40;99.90
60727;DHT22;46577;49.004;12.120;2022-09-27T18:29:09;10.40;99.90